Aeroporto :
LOGIN :

Iscrizione | Disclaimer

   EN    FR    IT 

 










Sommario :    VFR   VFR Marginale   IFR   IFR Intensivo   IFR Molto Intensivo
Visibilità : 
Base nubi : 
>= 8 km
>= 3000ft
5 / 8 km
1000 / 3000 ft
1500m / 5 km
500 / 1000 ft
800 / 1500m
200 / 500 ft
< 800m
< 200 ft
Simboli :   Temporali  Nebbia  Neve Forte  Precipitazioni Forti  Vento > 20 kt
SIGMETs :   Varie  Temporali  Ghiacco  Turbolenza  Onda orograficha  Ceneri Vulcaniche






- Altitudine del aeroporto : 1090 ft
- Codice IATA : CFE


LFLC - Clermont-Ferrand Auvergne

ULTIMO METAR :
  • 250000Z AUTO 31003KT 200V360 CAVOK 08/02 Q1018 NOSIG

METARs OBSOLETI :
  • 242330Z AUTO 27004KT 180V320 CAVOK 09/03 Q1018 NOSIG
  • 242300Z AUTO VRB07KT CAVOK 08/02 Q1018 NOSIG
  • 242230Z AUTO 32005KT 250V350 CAVOK 08/02 Q1018 NOSIG
  • 242200Z AUTO VRB04KT CAVOK 08/02 Q1018 NOSIG
  • 242130Z AUTO 19012KT CAVOK 08/02 Q1018 NOSIG
  • 242100Z AUTO 19013KT 160V230 CAVOK 08/02 Q1018 NOSIG

TAF TAF LFLC
Valido dal 25 a 00 ore il 26 a 00 ore UTC


242300Z 2500/2524 18010KT CAVOK
PROB40
TEMPO 2512/2515 16015G25KT
ATIS : +33 4 73 62 74 38



MetMap, La meteo Aeronautica in un colpo d'occhio ! - Copyright ORBIFLY Dicembre 2007 - Disclaimer

ORBIFLY MET'MAP TEAM :

Programmazione e sviluppo : Alexandra Zaïnal
Concezione : Baudouin d'Aumeries
Aiuto per la programmazione : Marc-Olivier Méhu
Supporto tecnico e logistico : Manuel Goepfert
Aiuto per la traduzione : Arnaldo La Scala

Contatto : metmap@orbifly.com




FONTI E CREDITI :

   NOAA